sensor_id;sensor_type;location;lat;lon;timestamp;pressure;altitude;pressure_sealevel;temperature;humidity
7105;BME280;3594;42.152;24.714;2023-02-22T00:00:20;-24165.53;;;12.48;nan
7105;BME280;3594;42.152;24.714;2023-02-22T00:03:04;-24156.09;;;12.14;nan
7105;BME280;3594;42.152;24.714;2023-02-22T00:05:31;-24161.72;;;12.34;nan
7105;BME280;3594;42.152;24.714;2023-02-22T00:07:57;-24161.59;;;12.34;nan
7105;BME280;3594;42.152;24.714;2023-02-22T00:10:25;-24159.63;;;12.27;nan
7105;BME280;3594;42.152;24.714;2023-02-22T00:12:53;-24163.13;;;12.39;nan
7105;BME280;3594;42.152;24.714;2023-02-22T00:15:22;-24173.25;;;12.76;nan
7105;BME280;3594;42.152;24.714;2023-02-22T00:17:52;-24173.81;;;12.78;nan
7105;BME280;3594;42.152;24.714;2023-02-22T00:20:17;-24161.59;;;12.34;nan
7105;BME280;3594;42.152;24.714;2023-02-22T00:22:45;-24172.00;;;12.71;nan
7105;BME280;3594;42.152;24.714;2023-02-22T00:25:12;-24166.78;;;12.53;nan
7105;BME280;3594;42.152;24.714;2023-02-22T00:27:38;-24160.88;;;12.31;nan
7105;BME280;3594;42.152;24.714;2023-02-22T00:30:05;-24166.50;;;12.52;nan
7105;BME280;3594;42.152;24.714;2023-02-22T00:32:31;-24140.03;;;11.57;nan
7105;BME280;3594;42.152;24.714;2023-02-22T00:34:57;-24155.81;;;12.13;nan
7105;BME280;3594;42.152;24.714;2023-02-22T00:37:22;-24138.06;;;11.49;nan
7105;BME280;3594;42.152;24.714;2023-02-22T00:39:48;-24160.19;;;12.29;nan
7105;BME280;3594;42.152;24.714;2023-02-22T00:42:16;-24154.69;;;12.09;nan
7105;BME280;3594;42.152;24.714;2023-02-22T00:44:42;-24154.97;;;12.10;nan
7105;BME280;3594;42.152;24.714;2023-02-22T00:47:08;-24148.50;;;11.87;nan
7105;BME280;3594;42.152;24.714;2023-02-22T00:49:34;-24146.81;;;11.81;nan
7105;BME280;3594;42.152;24.714;2023-02-22T00:52:00;-24148.78;;;11.88;nan
7105;BME280;3594;42.152;24.714;2023-02-22T00:54:26;-24151.59;;;11.98;nan
7105;BME280;3594;42.152;24.714;2023-02-22T00:56:51;-24146.81;;;11.81;nan
7105;BME280;3594;42.152;24.714;2023-02-22T00:59:17;-24155.81;;;12.13;nan
7105;BME280;3594;42.152;24.714;2023-02-22T01:01:42;-24150.31;;;11.93;nan
7105;BME280;3594;42.152;24.714;2023-02-22T01:04:08;-24154.13;;;12.07;nan
7105;BME280;3594;42.152;24.714;2023-02-22T01:06:34;-24157.09;;;12.18;nan
7105;BME280;3594;42.152;24.714;2023-02-22T01:09:01;-24153.69;;;12.06;nan
7105;BME280;3594;42.152;24.714;2023-02-22T01:11:26;-24160.03;;;12.28;nan
7105;BME280;3594;42.152;24.714;2023-02-22T01:13:52;-24164.53;;;12.45;nan
7105;BME280;3594;42.152;24.714;2023-02-22T01:16:19;-24162.72;;;12.38;nan
7105;BME280;3594;42.152;24.714;2023-02-22T01:18:45;-24162.28;;;12.36;nan
7105;BME280;3594;42.152;24.714;2023-02-22T01:21:10;-24162.16;;;12.36;nan
7105;BME280;3594;42.152;24.714;2023-02-22T01:23:36;-24153.28;;;12.04;nan
7105;BME280;3594;42.152;24.714;2023-02-22T01:26:01;-24152.16;;;12.00;nan
7105;BME280;3594;42.152;24.714;2023-02-22T01:28:30;-24164.25;;;12.44;nan
7105;BME280;3594;42.152;24.714;2023-02-22T01:30:56;-24153.84;;;12.06;nan
7105;BME280;3594;42.152;24.714;2023-02-22T01:33:21;-24150.88;;;11.95;nan
7105;BME280;3594;42.152;24.714;2023-02-22T01:35:47;-24151.44;;;11.98;nan
7105;BME280;3594;42.152;24.714;2023-02-22T01:38:14;-24159.91;;;12.28;nan
7105;BME280;3594;42.152;24.714;2023-02-22T01:40:41;-24150.88;;;11.95;nan
7105;BME280;3594;42.152;24.714;2023-02-22T01:46:04;-24154.13;;;12.07;nan
7105;BME280;3594;42.152;24.714;2023-02-22T01:48:49;-24151.72;;;11.99;nan
7105;BME280;3594;42.152;24.714;2023-02-22T01:51:28;-24145.69;;;11.77;nan
7105;BME280;3594;42.152;24.714;2023-02-22T01:54:02;-24146.25;;;11.79;nan
7105;BME280;3594;42.152;24.714;2023-02-22T01:56:31;-24150.19;;;11.93;nan
7105;BME280;3594;42.152;24.714;2023-02-22T01:59:04;-24144.84;;;11.74;nan
7105;BME280;3594;42.152;24.714;2023-02-22T02:01:35;-24142.44;;;11.65;nan
7105;BME280;3594;42.152;24.714;2023-02-22T02:04:05;-24143.13;;;11.68;nan
7105;BME280;3594;42.152;24.714;2023-02-22T02:06:32;-24143.84;;;11.70;nan
7105;BME280;3594;42.152;24.714;2023-02-22T02:11:48;-24142.00;;;11.64;nan
7105;BME280;3594;42.152;24.714;2023-02-22T02:14:13;-24140.47;;;11.58;nan
7105;BME280;3594;42.152;24.714;2023-02-22T02:16:48;-24152.44;;;12.01;nan
7105;BME280;3594;42.152;24.714;2023-02-22T02:33:18;-24150.75;;;11.95;nan
7105;BME280;3594;42.152;24.714;2023-02-22T02:39:17;-24120.03;;;10.85;nan
7105;BME280;3594;42.152;24.714;2023-02-22T02:41:33;-24123.69;;;10.98;nan
7105;BME280;3594;42.152;24.714;2023-02-22T02:44:03;-24123.84;;;10.98;nan
7105;BME280;3594;42.152;24.714;2023-02-22T02:46:54;-24134.97;;;11.38;nan
7105;BME280;3594;42.152;24.714;2023-02-22T02:49:30;-24137.94;;;11.49;nan
7105;BME280;3594;42.152;24.714;2023-02-22T02:51:59;-24136.09;;;11.42;nan
7105;BME280;3594;42.152;24.714;2023-02-22T02:54:27;-24152.16;;;12.00;nan
7105;BME280;3594;42.152;24.714;2023-02-22T02:56:55;-24146.53;;;11.80;nan
7105;BME280;3594;42.152;24.714;2023-02-22T02:59:28;-24157.66;;;12.20;nan
7105;BME280;3594;42.152;24.714;2023-02-22T03:12:48;-24147.09;;;11.82;nan
7105;BME280;3594;42.152;24.714;2023-02-22T03:15:26;-24109.88;;;10.48;nan
7105;BME280;3594;42.152;24.714;2023-02-22T03:21:23;-24091.22;;;9.82;nan
7105;BME280;3594;42.152;24.714;2023-02-22T03:26:53;-24096.59;;;10.01;nan
7105;BME280;3594;42.152;24.714;2023-02-22T03:29:23;-24099.13;;;10.10;nan
7105;BME280;3594;42.152;24.714;2023-02-22T03:31:56;-24098.84;;;10.09;nan
7105;BME280;3594;42.152;24.714;2023-02-22T03:34:32;-24095.03;;;9.95;nan
7105;BME280;3594;42.152;24.714;2023-02-22T03:37:20;-24103.66;;;10.26;nan
7105;BME280;3594;42.152;24.714;2023-02-22T03:39:51;-24090.38;;;9.79;nan
7105;BME280;3594;42.152;24.714;2023-02-22T03:42:31;-24086.72;;;9.65;nan
7105;BME280;3594;42.152;24.714;2023-02-22T03:45:01;-24070.31;;;9.07;nan
7105;BME280;3594;42.152;24.714;2023-02-22T03:47:40;-24066.22;;;8.92;nan
7105;BME280;3594;42.152;24.714;2023-02-22T03:50:14;-24065.06;;;8.88;nan
7105;BME280;3594;42.152;24.714;2023-02-22T03:52:41;-24065.34;;;8.89;nan
7105;BME280;3594;42.152;24.714;2023-02-22T03:55:09;-24059.84;;;8.69;nan
7105;BME280;3594;42.152;24.714;2023-02-22T03:57:48;-24069.19;;;9.03;nan
7105;BME280;3594;42.152;24.714;2023-02-22T04:00:18;-24067.75;;;8.98;nan
7105;BME280;3594;42.152;24.714;2023-02-22T04:02:44;-24069.59;;;9.04;nan
7105;BME280;3594;42.152;24.714;2023-02-22T04:05:10;-24074.84;;;9.23;nan
7105;BME280;3594;42.152;24.714;2023-02-22T04:07:35;-24061.53;;;8.75;nan
7105;BME280;3594;42.152;24.714;2023-02-22T04:10:02;-24069.03;;;9.02;nan
7105;BME280;3594;42.152;24.714;2023-02-22T04:12:27;-24078.38;;;9.36;nan
7105;BME280;3594;42.152;24.714;2023-02-22T04:14:53;-24086.00;;;9.63;nan
7105;BME280;3594;42.152;24.714;2023-02-22T04:17:18;-24083.03;;;9.52;nan
7105;BME280;3594;42.152;24.714;2023-02-22T04:19:44;-24083.88;;;9.55;nan
7105;BME280;3594;42.152;24.714;2023-02-22T04:22:10;-24074.41;;;9.21;nan
7105;BME280;3594;42.152;24.714;2023-02-22T04:24:36;-24077.25;;;9.31;nan
7105;BME280;3594;42.152;24.714;2023-02-22T04:27:01;-24088.97;;;9.73;nan
7105;BME280;3594;42.152;24.714;2023-02-22T04:29:28;-24083.31;;;9.53;nan
7105;BME280;3594;42.152;24.714;2023-02-22T04:31:53;-24076.25;;;9.28;nan
7105;BME280;3594;42.152;24.714;2023-02-22T04:34:19;-24076.53;;;9.29;nan
7105;BME280;3594;42.152;24.714;2023-02-22T04:36:44;-24078.78;;;9.37;nan
7105;BME280;3594;42.152;24.714;2023-02-22T04:39:10;-24088.13;;;9.70;nan
7105;BME280;3594;42.152;24.714;2023-02-22T04:41:35;-24093.47;;;9.90;nan
7105;BME280;3594;42.152;24.714;2023-02-22T04:44:01;-24090.81;;;9.80;nan
7105;BME280;3594;42.152;24.714;2023-02-22T04:46:26;-24096.59;;;10.01;nan
7105;BME280;3594;42.152;24.714;2023-02-22T04:48:52;-24089.25;;;9.74;nan
7105;BME280;3594;42.152;24.714;2023-02-22T04:51:18;-24092.91;;;9.88;nan
7105;BME280;3594;42.152;24.714;2023-02-22T04:53:44;-24091.78;;;9.84;nan
7105;BME280;3594;42.152;24.714;2023-02-22T04:56:10;-24092.91;;;9.88;nan
7105;BME280;3594;42.152;24.714;2023-02-22T04:58:35;-24094.19;;;9.92;nan
7105;BME280;3594;42.152;24.714;2023-02-22T05:01:01;-24099.69;;;10.12;nan
7105;BME280;3594;42.152;24.714;2023-02-22T05:03:27;-24099.84;;;10.12;nan
7105;BME280;3594;42.152;24.714;2023-02-22T05:05:53;-24101.97;;;10.20;nan
7105;BME280;3594;42.152;24.714;2023-02-22T05:08:18;-24107.63;;;10.40;nan
7105;BME280;3594;42.152;24.714;2023-02-22T05:10:44;-24119.75;;;10.84;nan
7105;BME280;3594;42.152;24.714;2023-02-22T05:13:09;-24119.19;;;10.82;nan
7105;BME280;3594;42.152;24.714;2023-02-22T05:15:35;-24130.47;;;11.22;nan
7105;BME280;3594;42.152;24.714;2023-02-22T05:18:00;-24041.28;;;8.03;nan
7105;BME280;3594;42.152;24.714;2023-02-22T05:20:31;-24130.88;;;11.24;nan
7105;BME280;3594;42.152;24.714;2023-02-22T05:22:58;-24142.56;;;11.66;nan
7105;BME280;3594;42.152;24.714;2023-02-22T05:25:25;-24147.22;;;11.82;nan
7105;BME280;3594;42.152;24.714;2023-02-22T05:27:52;-24142.00;;;11.64;nan
7105;BME280;3594;42.152;24.714;2023-02-22T05:30:21;-24152.28;;;12.01;nan
7105;BME280;3594;42.152;24.714;2023-02-22T05:32:49;-24153.56;;;12.05;nan
7105;BME280;3594;42.152;24.714;2023-02-22T05:35:14;-24147.09;;;11.82;nan
7105;BME280;3594;42.152;24.714;2023-02-22T05:37:40;-24156.94;;;12.17;nan
7105;BME280;3594;42.152;24.714;2023-02-22T05:40:05;-24160.47;;;12.30;nan
7105;BME280;3594;42.152;24.714;2023-02-22T05:42:32;-24157.78;;;12.20;nan
7105;BME280;3594;42.152;24.714;2023-02-22T05:44:57;-24163.97;;;12.43;nan
7105;BME280;3594;42.152;24.714;2023-02-22T05:47:24;-24171.56;;;12.70;nan
7105;BME280;3594;42.152;24.714;2023-02-22T05:49:50;-24182.53;;;13.09;nan
7105;BME280;3594;42.152;24.714;2023-02-22T05:52:15;-24182.53;;;13.09;nan
7105;BME280;3594;42.152;24.714;2023-02-22T05:54:40;-24183.81;;;13.14;nan
7105;BME280;3594;42.152;24.714;2023-02-22T05:57:06;-24185.78;;;13.21;nan
7105;BME280;3594;42.152;24.714;2023-02-22T05:59:32;-24176.50;;;12.88;nan
7105;BME280;3594;42.152;24.714;2023-02-22T06:01:57;-24187.88;;;13.28;nan
7105;BME280;3594;42.152;24.714;2023-02-22T06:04:23;-24175.50;;;12.84;nan
7105;BME280;3594;42.152;24.714;2023-02-22T06:06:48;-24188.31;;;13.30;nan
7105;BME280;3594;42.152;24.714;2023-02-22T06:09:14;-24180.72;;;13.03;nan
7105;BME280;3594;42.152;24.714;2023-02-22T06:11:39;-24186.75;;;13.24;nan
7105;BME280;3594;42.152;24.714;2023-02-22T06:14:04;-24189.72;;;13.35;nan
7105;BME280;3594;42.152;24.714;2023-02-22T06:16:30;-24177.75;;;12.92;nan
7105;BME280;3594;42.152;24.714;2023-02-22T06:18:56;-24187.88;;;13.28;nan
7105;BME280;3594;42.152;24.714;2023-02-22T06:21:22;-24185.34;;;13.19;nan
7105;BME280;3594;42.152;24.714;2023-02-22T06:23:47;-24172.97;;;12.75;nan
7105;BME280;3594;42.152;24.714;2023-02-22T06:26:16;-24175.50;;;12.84;nan
7105;BME280;3594;42.152;24.714;2023-02-22T06:28:42;-24180.28;;;13.01;nan
7105;BME280;3594;42.152;24.714;2023-02-22T06:31:07;-24176.91;;;12.89;nan
7105;BME280;3594;42.152;24.714;2023-02-22T06:33:32;-24167.63;;;12.56;nan
7105;BME280;3594;42.152;24.714;2023-02-22T06:35:58;-24174.38;;;12.80;nan
7105;BME280;3594;42.152;24.714;2023-02-22T06:38:25;-24182.53;;;13.09;nan
7105;BME280;3594;42.152;24.714;2023-02-22T06:40:51;-24180.56;;;13.02;nan
7105;BME280;3594;42.152;24.714;2023-02-22T06:43:21;-24180.28;;;13.01;nan
7105;BME280;3594;42.152;24.714;2023-02-22T06:45:47;-24173.69;;;12.77;nan
7105;BME280;3594;42.152;24.714;2023-02-22T06:48:12;-24175.09;;;12.82;nan
7105;BME280;3594;42.152;24.714;2023-02-22T06:50:38;-24189.56;;;13.35;nan
7105;BME280;3594;42.152;24.714;2023-02-22T06:53:03;-24200.09;;;13.73;nan
7105;BME280;3594;42.152;24.714;2023-02-22T06:55:31;-24198.00;;;13.65;nan
7105;BME280;3594;42.152;24.714;2023-02-22T06:57:57;-24207.97;;;14.01;nan
7105;BME280;3594;42.152;24.714;2023-02-22T07:00:24;-24204.44;;;13.88;nan
7105;BME280;3594;42.152;24.714;2023-02-22T07:02:51;-24214.97;;;14.26;nan
7105;BME280;3594;42.152;24.714;2023-02-22T07:05:18;-24212.88;;;14.19;nan
7105;BME280;3594;42.152;24.714;2023-02-22T07:07:45;-24224.66;;;14.61;nan
7105;BME280;3594;42.152;24.714;2023-02-22T07:12:43;-24232.94;;;14.91;nan
7105;BME280;3594;42.152;24.714;2023-02-22T07:15:08;-24241.19;;;15.21;nan
7105;BME280;3594;42.152;24.714;2023-02-22T07:17:34;-24234.47;;;14.96;nan
7105;BME280;3594;42.152;24.714;2023-02-22T07:20:00;-24249.88;;;15.52;nan
7105;BME280;3594;42.152;24.714;2023-02-22T07:22:25;-24255.91;;;15.74;nan
7105;BME280;3594;42.152;24.714;2023-02-22T07:24:50;-24251.41;;;15.58;nan
7105;BME280;3594;42.152;24.714;2023-02-22T07:27:16;-24250.16;;;15.53;nan
7105;BME280;3594;42.152;24.714;2023-02-22T07:29:42;-24255.75;;;15.73;nan
7105;BME280;3594;42.152;24.714;2023-02-22T07:32:08;-24256.59;;;15.76;nan
7105;BME280;3594;42.152;24.714;2023-02-22T07:34:34;-24260.78;;;15.91;nan
7105;BME280;3594;42.152;24.714;2023-02-22T07:36:59;-24263.44;;;16.01;nan
7105;BME280;3594;42.152;24.714;2023-02-22T07:39:25;-24272.13;;;16.32;nan
7105;BME280;3594;42.152;24.714;2023-02-22T07:41:51;-24270.16;;;16.25;nan
7105;BME280;3594;42.152;24.714;2023-02-22T07:44:16;-24274.78;;;16.42;nan
7105;BME280;3594;42.152;24.714;2023-02-22T07:46:46;-24274.63;;;16.42;nan
7105;BME280;3594;42.152;24.714;2023-02-22T07:49:11;-24282.03;;;16.68;nan
7105;BME280;3594;42.152;24.714;2023-02-22T07:51:37;-24278.97;;;16.57;nan
7105;BME280;3594;42.152;24.714;2023-02-22T07:54:02;-24283.44;;;16.73;nan
7105;BME280;3594;42.152;24.714;2023-02-22T07:56:27;-24286.66;;;16.85;nan
7105;BME280;3594;42.152;24.714;2023-02-22T07:58:53;-24295.16;;;17.16;nan
7105;BME280;3594;42.152;24.714;2023-02-22T08:01:18;-24290.84;;;17.00;nan
7105;BME280;3594;42.152;24.714;2023-02-22T08:03:43;-24303.00;;;17.44;nan
7105;BME280;3594;42.152;24.714;2023-02-22T08:06:11;-24298.53;;;17.28;nan
7105;BME280;3594;42.152;24.714;2023-02-22T08:08:37;-24308.72;;;17.65;nan
7105;BME280;3594;42.152;24.714;2023-02-22T08:11:03;-24299.63;;;17.32;nan
7105;BME280;3594;42.152;24.714;2023-02-22T08:13:29;-24305.22;;;17.52;nan
7105;BME280;3594;42.152;24.714;2023-02-22T08:15:54;-24300.06;;;17.34;nan
7105;BME280;3594;42.152;24.714;2023-02-22T08:18:21;-24314.00;;;17.84;nan
7105;BME280;3594;42.152;24.714;2023-02-22T08:20:49;-24318.63;;;18.01;nan
7105;BME280;3594;42.152;24.714;2023-02-22T08:23:16;-24319.44;;;18.04;nan
7105;BME280;3594;42.152;24.714;2023-02-22T08:25:42;-24321.25;;;18.10;nan
7105;BME280;3594;42.152;24.714;2023-02-22T08:28:11;-24318.91;;;18.02;nan
7105;BME280;3594;42.152;24.714;2023-02-22T08:30:37;-24323.78;;;18.20;nan
7105;BME280;3594;42.152;24.714;2023-02-22T08:33:03;-24318.91;;;18.02;nan
7105;BME280;3594;42.152;24.714;2023-02-22T08:35:30;-24321.13;;;18.10;nan
7105;BME280;3594;42.152;24.714;2023-02-22T08:38:03;-24328.22;;;18.36;nan
7105;BME280;3594;42.152;24.714;2023-02-22T08:40:31;-24323.78;;;18.20;nan
7105;BME280;3594;42.152;24.714;2023-02-22T08:42:57;-24327.53;;;18.33;nan
7105;BME280;3594;42.152;24.714;2023-02-22T08:45:22;-24332.56;;;18.51;nan
7105;BME280;3594;42.152;24.714;2023-02-22T08:47:48;-24333.13;;;18.53;nan
7105;BME280;3594;42.152;24.714;2023-02-22T08:50:21;-24340.22;;;18.79;nan
7105;BME280;3594;42.152;24.714;2023-02-22T08:52:53;-24333.38;;;18.54;nan
7105;BME280;3594;42.152;24.714;2023-02-22T08:55:23;-24343.97;;;18.93;nan
7105;BME280;3594;42.152;24.714;2023-02-22T08:57:48;-24337.00;;;18.68;nan
7105;BME280;3594;42.152;24.714;2023-02-22T09:00:16;-24345.22;;;18.97;nan
7105;BME280;3594;42.152;24.714;2023-02-22T09:02:41;-24347.03;;;19.04;nan
7105;BME280;3594;42.152;24.714;2023-02-22T09:05:08;-24345.50;;;18.98;nan
7105;BME280;3594;42.152;24.714;2023-02-22T09:07:33;-24351.47;;;19.20;nan
7105;BME280;3594;42.152;24.714;2023-02-22T09:09:58;-24348.00;;;19.08;nan
7105;BME280;3594;42.152;24.714;2023-02-22T09:12:24;-24354.00;;;19.29;nan
7105;BME280;3594;42.152;24.714;2023-02-22T09:14:49;-24356.63;;;19.39;nan
7105;BME280;3594;42.152;24.714;2023-02-22T09:17:15;-24364.56;;;19.68;nan
7105;BME280;3594;42.152;24.714;2023-02-22T09:19:40;-24359.56;;;19.50;nan
7105;BME280;3594;42.152;24.714;2023-02-22T09:22:05;-24360.25;;;19.52;nan
7105;BME280;3594;42.152;24.714;2023-02-22T09:24:31;-24354.81;;;19.32;nan
7105;BME280;3594;42.152;24.714;2023-02-22T09:26:56;-24354.28;;;19.30;nan
7105;BME280;3594;42.152;24.714;2023-02-22T09:29:26;-24354.97;;;19.33;nan
7105;BME280;3594;42.152;24.714;2023-02-22T09:31:54;-24360.13;;;19.52;nan
7105;BME280;3594;42.152;24.714;2023-02-22T09:34:21;-24365.81;;;19.72;nan
7105;BME280;3594;42.152;24.714;2023-02-22T09:36:54;-24374.28;;;20.03;nan
7105;BME280;3594;42.152;24.714;2023-02-22T09:39:20;-24369.16;;;19.84;nan
7105;BME280;3594;42.152;24.714;2023-02-22T09:45:02;-24374.72;;;20.05;nan
7105;BME280;3594;42.152;24.714;2023-02-22T09:47:53;-24371.78;;;19.94;nan
7105;BME280;3594;42.152;24.714;2023-02-22T09:50:41;-24367.19;;;19.77;nan
7105;BME280;3594;42.152;24.714;2023-02-22T09:53:32;-24378.75;;;20.19;nan
7105;BME280;3594;42.152;24.714;2023-02-22T09:56:06;-24370.53;;;19.90;nan
7105;BME280;3594;42.152;24.714;2023-02-22T09:58:39;-24372.50;;;19.97;nan
7105;BME280;3594;42.152;24.714;2023-02-22T10:06:23;-24373.59;;;20.01;nan
7105;BME280;3594;42.152;24.714;2023-02-22T10:08:51;-24372.91;;;19.98;nan
7105;BME280;3594;42.152;24.714;2023-02-22T10:19:40;-24387.91;;;20.53;nan
7105;BME280;3594;42.152;24.714;2023-02-22T10:25:05;-24379.84;;;20.23;nan
7105;BME280;3594;42.152;24.714;2023-02-22T10:27:56;-24387.63;;;20.52;nan
7105;BME280;3594;42.152;24.714;2023-02-22T10:30:34;-24388.59;;;20.55;nan
7105;BME280;3594;42.152;24.714;2023-02-22T10:35:41;-24391.94;;;20.67;nan
7105;BME280;3594;42.152;24.714;2023-02-22T10:38:13;-24394.28;;;20.76;nan
7105;BME280;3594;42.152;24.714;2023-02-22T10:40:44;-24389.00;;;20.57;nan
7105;BME280;3594;42.152;24.714;2023-02-22T10:43:12;-24392.06;;;20.68;nan
7105;BME280;3594;42.152;24.714;2023-02-22T10:45:38;-24397.06;;;20.86;nan
7105;BME280;3594;42.152;24.714;2023-02-22T10:48:10;-24397.63;;;20.88;nan
7105;BME280;3594;42.152;24.714;2023-02-22T10:50:38;-24396.22;;;20.83;nan
7105;BME280;3594;42.152;24.714;2023-02-22T10:53:06;-24399.56;;;20.95;nan
7105;BME280;3594;42.152;24.714;2023-02-22T10:55:31;-24402.59;;;21.06;nan
7105;BME280;3594;42.152;24.714;2023-02-22T10:58:05;-24399.28;;;20.94;nan
7105;BME280;3594;42.152;24.714;2023-02-22T11:00:34;-24399.84;;;20.96;nan
7105;BME280;3594;42.152;24.714;2023-02-22T11:03:16;-24403.31;;;21.09;nan
7105;BME280;3594;42.152;24.714;2023-02-22T11:05:42;-24407.19;;;21.23;nan
7105;BME280;3594;42.152;24.714;2023-02-22T11:10:41;-24404.84;;;21.14;nan
7105;BME280;3594;42.152;24.714;2023-02-22T11:13:37;-24411.22;;;21.38;nan
7105;BME280;3594;42.152;24.714;2023-02-22T11:16:31;-24411.50;;;21.39;nan
7105;BME280;3594;42.152;24.714;2023-02-22T11:19:00;-24413.28;;;21.45;nan
7105;BME280;3594;42.152;24.714;2023-02-22T11:21:26;-24414.41;;;21.49;nan
7105;BME280;3594;42.152;24.714;2023-02-22T11:24:08;-24409.00;;;21.30;nan
7105;BME280;3594;42.152;24.714;2023-02-22T11:29:27;-24413.16;;;21.45;nan
7105;BME280;3594;42.152;24.714;2023-02-22T11:31:57;-24415.78;;;21.54;nan
7105;BME280;3594;42.152;24.714;2023-02-22T11:34:32;-24419.09;;;21.67;nan
7105;BME280;3594;42.152;24.714;2023-02-22T11:40:09;-24410.38;;;21.35;nan
7105;BME280;3594;42.152;24.714;2023-02-22T11:42:36;-24407.19;;;21.23;nan
7105;BME280;3594;42.152;24.714;2023-02-22T11:45:15;-24420.91;;;21.73;nan
7105;BME280;3594;42.152;24.714;2023-02-22T11:47:53;-24411.06;;;21.37;nan
7105;BME280;3594;42.152;24.714;2023-02-22T11:50:32;-24406.78;;;21.22;nan
7105;BME280;3594;42.152;24.714;2023-02-22T11:55:32;-24416.75;;;21.58;nan
7105;BME280;3594;42.152;24.714;2023-02-22T12:00:57;-24410.66;;;21.36;nan
7105;BME280;3594;42.152;24.714;2023-02-22T12:06:52;-24412.47;;;21.42;nan
7105;BME280;3594;42.152;24.714;2023-02-22T12:14:54;-24418.28;;;21.64;nan
7105;BME280;3594;42.152;24.714;2023-02-22T12:20:20;-24420.34;;;21.71;nan
7105;BME280;3594;42.152;24.714;2023-02-22T12:25:40;-24411.50;;;21.39;nan
7105;BME280;3594;42.152;24.714;2023-02-22T12:28:21;-24415.22;;;21.52;nan
7105;BME280;3594;42.152;24.714;2023-02-22T12:33:49;-24422.44;;;21.79;nan
7105;BME280;3594;42.152;24.714;2023-02-22T12:36:19;-24418.97;;;21.66;nan
7105;BME280;3594;42.152;24.714;2023-02-22T12:38:51;-24422.84;;;21.80;nan
7105;BME280;3594;42.152;24.714;2023-02-22T12:41:35;-24424.09;;;21.85;nan
7105;BME280;3594;42.152;24.714;2023-02-22T12:44:18;-24414.53;;;21.50;nan
7105;BME280;3594;42.152;24.714;2023-02-22T12:46:48;-24415.22;;;21.52;nan
7105;BME280;3594;42.152;24.714;2023-02-22T12:49:42;-24404.00;;;21.11;nan
7105;BME280;3594;42.152;24.714;2023-02-22T12:55:15;-24416.47;;;21.57;nan
7105;BME280;3594;42.152;24.714;2023-02-22T12:57:50;-24416.75;;;21.58;nan
7105;BME280;3594;42.152;24.714;2023-02-22T13:00:48;-24419.38;;;21.68;nan
7105;BME280;3594;42.152;24.714;2023-02-22T13:03:32;-24418.56;;;21.65;nan
7105;BME280;3594;42.152;24.714;2023-02-22T13:06:23;-24422.97;;;21.81;nan
7105;BME280;3594;42.152;24.714;2023-02-22T13:27:13;-24419.66;;;21.69;nan
7105;BME280;3594;42.152;24.714;2023-02-22T13:29:43;-24418.81;;;21.66;nan
7105;BME280;3594;42.152;24.714;2023-02-22T13:37:46;-24419.78;;;21.69;nan
7105;BME280;3594;42.152;24.714;2023-02-22T13:54:07;-24414.25;;;21.49;nan
7105;BME280;3594;42.152;24.714;2023-02-22T13:56:33;-24406.50;;;21.21;nan
7105;BME280;3594;42.152;24.714;2023-02-22T13:59:01;-24416.63;;;21.57;nan
7105;BME280;3594;42.152;24.714;2023-02-22T14:01:37;-24417.03;;;21.59;nan
7105;BME280;3594;42.152;24.714;2023-02-22T14:07:01;-24416.06;;;21.55;nan
7105;BME280;3594;42.152;24.714;2023-02-22T14:09:54;-24417.03;;;21.59;nan
7105;BME280;3594;42.152;24.714;2023-02-22T14:17:42;-24416.75;;;21.58;nan
7105;BME280;3594;42.152;24.714;2023-02-22T14:22:57;-24413.84;;;21.47;nan
7105;BME280;3594;42.152;24.714;2023-02-22T14:25:42;-24412.31;;;21.42;nan
7105;BME280;3594;42.152;24.714;2023-02-22T14:39:17;-24410.94;;;21.37;nan
7105;BME280;3594;42.152;24.714;2023-02-22T14:42:07;-24412.19;;;21.41;nan
7105;BME280;3594;42.152;24.714;2023-02-22T14:44:42;-24404.41;;;21.13;nan
7105;BME280;3594;42.152;24.714;2023-02-22T14:47:16;-24393.59;;;20.73;nan
7105;BME280;3594;42.152;24.714;2023-02-22T14:49:46;-24403.84;;;21.11;nan
7105;BME280;3594;42.152;24.714;2023-02-22T14:52:25;-24401.22;;;21.01;nan
7105;BME280;3594;42.152;24.714;2023-02-22T14:54:58;-24399.00;;;20.93;nan
7105;BME280;3594;42.152;24.714;2023-02-22T14:57:37;-24398.03;;;20.90;nan
7105;BME280;3594;42.152;24.714;2023-02-22T15:00:19;-24395.25;;;20.80;nan
7105;BME280;3594;42.152;24.714;2023-02-22T15:02:49;-24394.97;;;20.79;nan
7105;BME280;3594;42.152;24.714;2023-02-22T15:05:18;-24388.47;;;20.55;nan
7105;BME280;3594;42.152;24.714;2023-02-22T15:07:57;-24383.47;;;20.37;nan
7105;BME280;3594;42.152;24.714;2023-02-22T15:12:53;-24386.53;;;20.48;nan
7105;BME280;3594;42.152;24.714;2023-02-22T15:15:21;-24387.34;;;20.51;nan
7105;BME280;3594;42.152;24.714;2023-02-22T15:17:52;-24381.78;;;20.31;nan
7105;BME280;3594;42.152;24.714;2023-02-22T15:20:19;-24383.75;;;20.38;nan
7105;BME280;3594;42.152;24.714;2023-02-22T15:22:45;-24379.28;;;20.21;nan
7105;BME280;3594;42.152;24.714;2023-02-22T15:25:12;-24377.91;;;20.16;nan
7105;BME280;3594;42.152;24.714;2023-02-22T15:27:39;-24376.66;;;20.12;nan
7105;BME280;3594;42.152;24.714;2023-02-22T15:30:27;-24373.31;;;20.00;nan
7105;BME280;3594;42.152;24.714;2023-02-22T15:32:54;-24366.22;;;19.74;nan
7105;BME280;3594;42.152;24.714;2023-02-22T15:35:28;-24362.47;;;19.60;nan
7105;BME280;3594;42.152;24.714;2023-02-22T15:40:27;-24361.78;;;19.58;nan
7105;BME280;3594;42.152;24.714;2023-02-22T15:43:00;-24358.44;;;19.46;nan
7105;BME280;3594;42.152;24.714;2023-02-22T15:45:27;-24314.44;;;17.86;nan
7105;BME280;3594;42.152;24.714;2023-02-22T15:47:53;-24353.28;;;19.27;nan
7105;BME280;3594;42.152;24.714;2023-02-22T15:55:57;-24342.03;;;18.86;nan
7105;BME280;3594;42.152;24.714;2023-02-22T15:58:25;-24333.13;;;18.53;nan
7105;BME280;3594;42.152;24.714;2023-02-22T16:01:12;-24326.00;;;18.28;nan
7105;BME280;3594;42.152;24.714;2023-02-22T16:03:43;-24321.41;;;18.11;nan
7105;BME280;3594;42.152;24.714;2023-02-22T16:06:21;-24326.41;;;18.29;nan
7105;BME280;3594;42.152;24.714;2023-02-22T16:08:50;-24321.97;;;18.13;nan
7105;BME280;3594;42.152;24.714;2023-02-22T16:11:26;-24317.22;;;17.96;nan
7105;BME280;3594;42.152;24.714;2023-02-22T16:14:04;-24311.63;;;17.76;nan
7105;BME280;3594;42.152;24.714;2023-02-22T16:16:35;-24302.00;;;17.41;nan
7105;BME280;3594;42.152;24.714;2023-02-22T16:21:55;-24305.22;;;17.52;nan
7105;BME280;3594;42.152;24.714;2023-02-22T16:24:41;-24302.84;;;17.44;nan
7105;BME280;3594;42.152;24.714;2023-02-22T16:29:39;-24296.16;;;17.19;nan